sensor_id;sensor_type;location;lat;lon;timestamp;P1;durP1;ratioP1;P2;durP2;ratioP2
70008;SDS011;59542;37.950;-122.338;2023-02-08T00:00:32;2.42;;;1.70;;
70008;SDS011;59542;37.950;-122.338;2023-02-08T00:02:58;3.20;;;2.28;;
70008;SDS011;59542;37.950;-122.338;2023-02-08T00:05:25;2.45;;;1.75;;
70008;SDS011;59542;37.950;-122.338;2023-02-08T00:07:51;2.15;;;1.83;;
70008;SDS011;59542;37.950;-122.338;2023-02-08T00:10:17;3.83;;;2.00;;
70008;SDS011;59542;37.950;-122.338;2023-02-08T00:12:43;2.75;;;2.03;;
70008;SDS011;59542;37.950;-122.338;2023-02-08T00:15:11;2.72;;;1.92;;
70008;SDS011;59542;37.950;-122.338;2023-02-08T00:17:37;3.10;;;2.20;;
70008;SDS011;59542;37.950;-122.338;2023-02-08T00:20:04;2.95;;;2.20;;
70008;SDS011;59542;37.950;-122.338;2023-02-08T00:22:31;2.92;;;2.30;;
70008;SDS011;59542;37.950;-122.338;2023-02-08T00:24:58;3.45;;;1.90;;
70008;SDS011;59542;37.950;-122.338;2023-02-08T00:27:24;3.17;;;2.53;;
70008;SDS011;59542;37.950;-122.338;2023-02-08T00:29:50;3.13;;;2.08;;
70008;SDS011;59542;37.950;-122.338;2023-02-08T00:32:16;2.22;;;2.03;;
70008;SDS011;59542;37.950;-122.338;2023-02-08T00:34:43;3.08;;;2.00;;
70008;SDS011;59542;37.950;-122.338;2023-02-08T00:37:09;3.53;;;2.08;;
70008;SDS011;59542;37.950;-122.338;2023-02-08T00:39:35;2.60;;;2.00;;
70008;SDS011;59542;37.950;-122.338;2023-02-08T00:42:01;6.30;;;2.33;;
70008;SDS011;59542;37.950;-122.338;2023-02-08T00:44:28;7.55;;;2.83;;
70008;SDS011;59542;37.950;-122.338;2023-02-08T00:46:54;4.18;;;2.58;;
70008;SDS011;59542;37.950;-122.338;2023-02-08T00:49:20;5.40;;;2.55;;
70008;SDS011;59542;37.950;-122.338;2023-02-08T00:51:46;2.83;;;2.53;;
70008;SDS011;59542;37.950;-122.338;2023-02-08T00:54:14;3.28;;;2.40;;
70008;SDS011;59542;37.950;-122.338;2023-02-08T00:56:41;4.30;;;2.95;;
70008;SDS011;59542;37.950;-122.338;2023-02-08T00:59:08;2.92;;;2.63;;
70008;SDS011;59542;37.950;-122.338;2023-02-08T01:01:34;3.50;;;2.50;;
70008;SDS011;59542;37.950;-122.338;2023-02-08T01:04:01;5.65;;;2.70;;
70008;SDS011;59542;37.950;-122.338;2023-02-08T01:06:27;3.47;;;2.20;;
70008;SDS011;59542;37.950;-122.338;2023-02-08T01:08:53;3.30;;;2.65;;
70008;SDS011;59542;37.950;-122.338;2023-02-08T01:11:20;3.88;;;2.58;;
70008;SDS011;59542;37.950;-122.338;2023-02-08T01:13:50;4.50;;;2.72;;
70008;SDS011;59542;37.950;-122.338;2023-02-08T01:16:22;5.43;;;3.28;;
70008;SDS011;59542;37.950;-122.338;2023-02-08T01:18:51;4.68;;;3.33;;
70008;SDS011;59542;37.950;-122.338;2023-02-08T01:21:20;4.00;;;2.60;;
70008;SDS011;59542;37.950;-122.338;2023-02-08T01:23:49;3.00;;;2.42;;
70008;SDS011;59542;37.950;-122.338;2023-02-08T01:26:16;3.85;;;2.70;;
70008;SDS011;59542;37.950;-122.338;2023-02-08T01:28:44;4.65;;;2.95;;
70008;SDS011;59542;37.950;-122.338;2023-02-08T01:31:12;3.83;;;3.10;;
70008;SDS011;59542;37.950;-122.338;2023-02-08T01:33:40;5.18;;;2.88;;
70008;SDS011;59542;37.950;-122.338;2023-02-08T01:36:07;3.88;;;3.00;;
70008;SDS011;59542;37.950;-122.338;2023-02-08T01:38:34;4.35;;;3.20;;
70008;SDS011;59542;37.950;-122.338;2023-02-08T01:41:02;5.88;;;3.33;;
70008;SDS011;59542;37.950;-122.338;2023-02-08T01:43:33;4.35;;;2.85;;
70008;SDS011;59542;37.950;-122.338;2023-02-08T01:46:19;6.60;;;3.55;;
70008;SDS011;59542;37.950;-122.338;2023-02-08T01:48:45;4.28;;;3.47;;
70008;SDS011;59542;37.950;-122.338;2023-02-08T01:51:13;7.05;;;5.72;;
70008;SDS011;59542;37.950;-122.338;2023-02-08T01:53:49;4.82;;;4.30;;
70008;SDS011;59542;37.950;-122.338;2023-02-08T01:56:22;5.53;;;3.85;;
70008;SDS011;59542;37.950;-122.338;2023-02-08T01:58:59;7.03;;;4.20;;
70008;SDS011;59542;37.950;-122.338;2023-02-08T02:01:29;4.15;;;3.50;;
70008;SDS011;59542;37.950;-122.338;2023-02-08T02:03:58;5.53;;;3.38;;
70008;SDS011;59542;37.950;-122.338;2023-02-08T02:06:29;4.93;;;3.35;;
70008;SDS011;59542;37.950;-122.338;2023-02-08T02:11:28;4.10;;;3.30;;
70008;SDS011;59542;37.950;-122.338;2023-02-08T02:13:54;5.40;;;4.00;;
70008;SDS011;59542;37.950;-122.338;2023-02-08T02:16:21;7.22;;;3.42;;
70008;SDS011;59542;37.950;-122.338;2023-02-08T02:18:48;6.28;;;4.00;;
70008;SDS011;59542;37.950;-122.338;2023-02-08T02:42:59;5.88;;;3.97;;
70008;SDS011;59542;37.950;-122.338;2023-02-08T02:51:00;9.52;;;4.03;;
70008;SDS011;59542;37.950;-122.338;2023-02-08T02:56:22;7.00;;;4.43;;
70008;SDS011;59542;37.950;-122.338;2023-02-08T02:58:52;7.32;;;4.43;;
70008;SDS011;59542;37.950;-122.338;2023-02-08T03:01:23;5.85;;;3.97;;
70008;SDS011;59542;37.950;-122.338;2023-02-08T03:03:54;5.95;;;4.03;;
70008;SDS011;59542;37.950;-122.338;2023-02-08T03:06:27;5.25;;;3.22;;
70008;SDS011;59542;37.950;-122.338;2023-02-08T03:09:24;8.25;;;3.97;;
70008;SDS011;59542;37.950;-122.338;2023-02-08T03:14:55;4.30;;;3.08;;
70008;SDS011;59542;37.950;-122.338;2023-02-08T03:23:28;5.70;;;4.03;;
70008;SDS011;59542;37.950;-122.338;2023-02-08T03:28:42;7.57;;;4.57;;
70008;SDS011;59542;37.950;-122.338;2023-02-08T03:31:30;5.45;;;3.97;;
70008;SDS011;59542;37.950;-122.338;2023-02-08T03:36:46;6.30;;;4.10;;
70008;SDS011;59542;37.950;-122.338;2023-02-08T03:39:15;3.63;;;3.03;;
70008;SDS011;59542;37.950;-122.338;2023-02-08T03:41:47;3.55;;;2.90;;
70008;SDS011;59542;37.950;-122.338;2023-02-08T03:44:18;5.15;;;2.83;;
70008;SDS011;59542;37.950;-122.338;2023-02-08T03:47:08;3.30;;;2.67;;
70008;SDS011;59542;37.950;-122.338;2023-02-08T03:49:42;3.90;;;2.70;;
70008;SDS011;59542;37.950;-122.338;2023-02-08T03:52:11;10.55;;;3.58;;
70008;SDS011;59542;37.950;-122.338;2023-02-08T03:54:45;5.70;;;3.70;;
70008;SDS011;59542;37.950;-122.338;2023-02-08T03:57:17;5.15;;;3.67;;
70008;SDS011;59542;37.950;-122.338;2023-02-08T03:59:49;5.80;;;3.03;;
70008;SDS011;59542;37.950;-122.338;2023-02-08T04:02:20;5.13;;;3.20;;
70008;SDS011;59542;37.950;-122.338;2023-02-08T04:04:51;5.00;;;3.38;;
70008;SDS011;59542;37.950;-122.338;2023-02-08T04:07:18;4.88;;;3.50;;
70008;SDS011;59542;37.950;-122.338;2023-02-08T04:09:45;4.45;;;3.58;;
70008;SDS011;59542;37.950;-122.338;2023-02-08T04:12:11;5.72;;;3.38;;
70008;SDS011;59542;37.950;-122.338;2023-02-08T04:14:38;4.53;;;3.05;;
70008;SDS011;59542;37.950;-122.338;2023-02-08T04:17:04;4.20;;;3.72;;
70008;SDS011;59542;37.950;-122.338;2023-02-08T04:19:30;6.80;;;4.38;;
70008;SDS011;59542;37.950;-122.338;2023-02-08T04:21:57;6.80;;;4.53;;
70008;SDS011;59542;37.950;-122.338;2023-02-08T04:24:23;8.40;;;5.07;;
70008;SDS011;59542;37.950;-122.338;2023-02-08T04:26:49;7.20;;;5.10;;
70008;SDS011;59542;37.950;-122.338;2023-02-08T04:29:16;7.22;;;5.13;;
70008;SDS011;59542;37.950;-122.338;2023-02-08T04:31:43;7.75;;;5.18;;
70008;SDS011;59542;37.950;-122.338;2023-02-08T04:34:09;5.80;;;4.75;;
70008;SDS011;59542;37.950;-122.338;2023-02-08T04:36:35;7.72;;;5.47;;
70008;SDS011;59542;37.950;-122.338;2023-02-08T04:39:02;6.13;;;5.00;;
70008;SDS011;59542;37.950;-122.338;2023-02-08T04:41:28;6.57;;;4.72;;
70008;SDS011;59542;37.950;-122.338;2023-02-08T04:43:54;6.93;;;4.80;;
70008;SDS011;59542;37.950;-122.338;2023-02-08T04:46:21;6.57;;;4.57;;
70008;SDS011;59542;37.950;-122.338;2023-02-08T04:48:47;6.32;;;3.90;;
70008;SDS011;59542;37.950;-122.338;2023-02-08T04:51:14;5.45;;;4.13;;
70008;SDS011;59542;37.950;-122.338;2023-02-08T04:53:40;4.47;;;3.85;;
70008;SDS011;59542;37.950;-122.338;2023-02-08T04:56:06;5.90;;;4.35;;
70008;SDS011;59542;37.950;-122.338;2023-02-08T04:58:32;6.45;;;4.85;;
70008;SDS011;59542;37.950;-122.338;2023-02-08T05:00:59;9.90;;;6.50;;
70008;SDS011;59542;37.950;-122.338;2023-02-08T05:03:26;8.35;;;5.55;;
70008;SDS011;59542;37.950;-122.338;2023-02-08T05:05:56;6.90;;;5.10;;
70008;SDS011;59542;37.950;-122.338;2023-02-08T05:08:23;6.43;;;3.97;;
70008;SDS011;59542;37.950;-122.338;2023-02-08T05:10:49;5.78;;;4.25;;
70008;SDS011;59542;37.950;-122.338;2023-02-08T05:13:15;5.20;;;4.55;;
70008;SDS011;59542;37.950;-122.338;2023-02-08T05:15:42;5.40;;;3.85;;
70008;SDS011;59542;37.950;-122.338;2023-02-08T05:18:08;5.78;;;4.05;;
70008;SDS011;59542;37.950;-122.338;2023-02-08T05:20:34;4.70;;;3.72;;
70008;SDS011;59542;37.950;-122.338;2023-02-08T05:23:00;5.25;;;3.90;;
70008;SDS011;59542;37.950;-122.338;2023-02-08T05:25:27;5.90;;;3.92;;
70008;SDS011;59542;37.950;-122.338;2023-02-08T05:27:53;4.97;;;4.05;;
70008;SDS011;59542;37.950;-122.338;2023-02-08T05:30:19;5.30;;;3.88;;
70008;SDS011;59542;37.950;-122.338;2023-02-08T05:32:45;8.93;;;4.07;;
70008;SDS011;59542;37.950;-122.338;2023-02-08T05:35:12;5.32;;;4.32;;
70008;SDS011;59542;37.950;-122.338;2023-02-08T05:37:38;5.38;;;3.72;;
70008;SDS011;59542;37.950;-122.338;2023-02-08T05:40:04;5.18;;;3.97;;
70008;SDS011;59542;37.950;-122.338;2023-02-08T05:42:31;4.35;;;3.50;;
70008;SDS011;59542;37.950;-122.338;2023-02-08T05:44:57;6.93;;;3.78;;
70008;SDS011;59542;37.950;-122.338;2023-02-08T05:47:23;6.43;;;4.25;;
70008;SDS011;59542;37.950;-122.338;2023-02-08T05:49:50;4.75;;;4.05;;
70008;SDS011;59542;37.950;-122.338;2023-02-08T05:52:16;7.40;;;4.85;;
70008;SDS011;59542;37.950;-122.338;2023-02-08T05:54:42;9.23;;;4.68;;
70008;SDS011;59542;37.950;-122.338;2023-02-08T05:57:08;5.57;;;4.43;;
70008;SDS011;59542;37.950;-122.338;2023-02-08T05:59:34;5.80;;;4.22;;
70008;SDS011;59542;37.950;-122.338;2023-02-08T06:02:01;4.90;;;4.15;;
70008;SDS011;59542;37.950;-122.338;2023-02-08T06:04:27;5.72;;;4.20;;
70008;SDS011;59542;37.950;-122.338;2023-02-08T06:06:53;5.70;;;4.35;;
70008;SDS011;59542;37.950;-122.338;2023-02-08T06:09:19;6.05;;;4.15;;
70008;SDS011;59542;37.950;-122.338;2023-02-08T06:11:46;5.32;;;3.88;;
70008;SDS011;59542;37.950;-122.338;2023-02-08T06:14:12;5.72;;;4.30;;
70008;SDS011;59542;37.950;-122.338;2023-02-08T06:16:38;4.75;;;4.20;;
70008;SDS011;59542;37.950;-122.338;2023-02-08T06:19:04;5.18;;;4.40;;
70008;SDS011;59542;37.950;-122.338;2023-02-08T06:21:31;5.10;;;4.25;;
70008;SDS011;59542;37.950;-122.338;2023-02-08T06:23:57;4.85;;;4.05;;
70008;SDS011;59542;37.950;-122.338;2023-02-08T06:26:23;5.05;;;4.55;;
70008;SDS011;59542;37.950;-122.338;2023-02-08T06:28:50;4.55;;;4.05;;
70008;SDS011;59542;37.950;-122.338;2023-02-08T06:31:16;6.30;;;4.88;;
70008;SDS011;59542;37.950;-122.338;2023-02-08T06:33:42;9.02;;;4.97;;
70008;SDS011;59542;37.950;-122.338;2023-02-08T06:36:08;8.50;;;4.70;;
70008;SDS011;59542;37.950;-122.338;2023-02-08T06:38:34;8.02;;;4.90;;
70008;SDS011;59542;37.950;-122.338;2023-02-08T06:41:01;9.50;;;4.68;;
70008;SDS011;59542;37.950;-122.338;2023-02-08T06:43:27;7.00;;;4.38;;
70008;SDS011;59542;37.950;-122.338;2023-02-08T06:45:53;6.85;;;4.47;;
70008;SDS011;59542;37.950;-122.338;2023-02-08T06:48:19;5.43;;;4.35;;
70008;SDS011;59542;37.950;-122.338;2023-02-08T06:50:46;6.10;;;4.57;;
70008;SDS011;59542;37.950;-122.338;2023-02-08T06:53:12;9.63;;;4.72;;
70008;SDS011;59542;37.950;-122.338;2023-02-08T06:55:39;5.45;;;4.60;;
70008;SDS011;59542;37.950;-122.338;2023-02-08T06:58:05;5.75;;;4.47;;
70008;SDS011;59542;37.950;-122.338;2023-02-08T07:00:31;6.80;;;4.05;;
70008;SDS011;59542;37.950;-122.338;2023-02-08T07:02:57;5.22;;;4.20;;
70008;SDS011;59542;37.950;-122.338;2023-02-08T07:05:25;6.00;;;4.20;;
70008;SDS011;59542;37.950;-122.338;2023-02-08T07:07:51;9.02;;;5.00;;
70008;SDS011;59542;37.950;-122.338;2023-02-08T07:10:18;6.82;;;5.07;;
70008;SDS011;59542;37.950;-122.338;2023-02-08T07:12:44;6.20;;;3.97;;
70008;SDS011;59542;37.950;-122.338;2023-02-08T07:15:11;5.75;;;4.00;;
70008;SDS011;59542;37.950;-122.338;2023-02-08T07:17:38;4.70;;;3.90;;
70008;SDS011;59542;37.950;-122.338;2023-02-08T07:20:04;5.70;;;4.57;;
70008;SDS011;59542;37.950;-122.338;2023-02-08T07:22:31;6.35;;;4.57;;
70008;SDS011;59542;37.950;-122.338;2023-02-08T07:24:57;5.63;;;4.43;;
70008;SDS011;59542;37.950;-122.338;2023-02-08T07:27:23;5.70;;;4.25;;
70008;SDS011;59542;37.950;-122.338;2023-02-08T07:29:50;6.32;;;4.18;;
70008;SDS011;59542;37.950;-122.338;2023-02-08T07:32:16;5.97;;;4.43;;
70008;SDS011;59542;37.950;-122.338;2023-02-08T07:34:42;6.30;;;4.35;;
70008;SDS011;59542;37.950;-122.338;2023-02-08T07:37:09;6.15;;;4.85;;
70008;SDS011;59542;37.950;-122.338;2023-02-08T07:39:36;5.47;;;4.70;;
70008;SDS011;59542;37.950;-122.338;2023-02-08T07:42:02;6.40;;;5.35;;
70008;SDS011;59542;37.950;-122.338;2023-02-08T07:44:30;5.45;;;4.55;;
70008;SDS011;59542;37.950;-122.338;2023-02-08T07:46:57;6.40;;;5.00;;
70008;SDS011;59542;37.950;-122.338;2023-02-08T07:49:23;5.53;;;4.93;;
70008;SDS011;59542;37.950;-122.338;2023-02-08T07:51:49;6.55;;;5.13;;
70008;SDS011;59542;37.950;-122.338;2023-02-08T07:54:15;7.03;;;4.70;;
70008;SDS011;59542;37.950;-122.338;2023-02-08T07:56:42;7.25;;;4.97;;
70008;SDS011;59542;37.950;-122.338;2023-02-08T07:59:08;5.97;;;5.00;;
70008;SDS011;59542;37.950;-122.338;2023-02-08T08:01:35;7.30;;;5.32;;
70008;SDS011;59542;37.950;-122.338;2023-02-08T08:04:01;7.40;;;5.40;;
70008;SDS011;59542;37.950;-122.338;2023-02-08T08:06:27;7.18;;;5.72;;
70008;SDS011;59542;37.950;-122.338;2023-02-08T08:08:53;5.93;;;4.80;;
70008;SDS011;59542;37.950;-122.338;2023-02-08T08:11:20;5.75;;;5.03;;
70008;SDS011;59542;37.950;-122.338;2023-02-08T08:13:46;5.68;;;5.00;;
70008;SDS011;59542;37.950;-122.338;2023-02-08T08:16:13;5.72;;;4.82;;
70008;SDS011;59542;37.950;-122.338;2023-02-08T08:18:39;6.38;;;5.28;;
70008;SDS011;59542;37.950;-122.338;2023-02-08T08:21:06;6.15;;;5.40;;
70008;SDS011;59542;37.950;-122.338;2023-02-08T08:23:32;9.65;;;4.85;;
70008;SDS011;59542;37.950;-122.338;2023-02-08T08:26:05;6.50;;;4.72;;
70008;SDS011;59542;37.950;-122.338;2023-02-08T08:28:32;5.57;;;5.00;;
70008;SDS011;59542;37.950;-122.338;2023-02-08T08:30:59;7.00;;;5.47;;
70008;SDS011;59542;37.950;-122.338;2023-02-08T08:33:25;5.35;;;4.85;;
70008;SDS011;59542;37.950;-122.338;2023-02-08T08:35:51;11.32;;;5.38;;
70008;SDS011;59542;37.950;-122.338;2023-02-08T08:38:17;7.13;;;5.75;;
70008;SDS011;59542;37.950;-122.338;2023-02-08T08:40:43;6.90;;;5.75;;
70008;SDS011;59542;37.950;-122.338;2023-02-08T08:43:10;6.43;;;5.28;;
70008;SDS011;59542;37.950;-122.338;2023-02-08T08:45:36;7.30;;;5.40;;
70008;SDS011;59542;37.950;-122.338;2023-02-08T08:48:02;9.15;;;5.82;;
70008;SDS011;59542;37.950;-122.338;2023-02-08T08:50:28;8.80;;;5.80;;
70008;SDS011;59542;37.950;-122.338;2023-02-08T08:52:55;6.03;;;5.43;;
70008;SDS011;59542;37.950;-122.338;2023-02-08T08:55:21;6.22;;;5.63;;
70008;SDS011;59542;37.950;-122.338;2023-02-08T08:57:47;7.30;;;5.82;;
70008;SDS011;59542;37.950;-122.338;2023-02-08T09:00:14;7.68;;;5.95;;
70008;SDS011;59542;37.950;-122.338;2023-02-08T09:02:40;6.35;;;5.65;;
70008;SDS011;59542;37.950;-122.338;2023-02-08T09:05:06;7.60;;;5.82;;
70008;SDS011;59542;37.950;-122.338;2023-02-08T09:07:32;7.05;;;5.45;;
70008;SDS011;59542;37.950;-122.338;2023-02-08T09:09:59;6.03;;;5.43;;
70008;SDS011;59542;37.950;-122.338;2023-02-08T09:12:25;7.10;;;5.95;;
70008;SDS011;59542;37.950;-122.338;2023-02-08T09:14:52;9.85;;;6.28;;
70008;SDS011;59542;37.950;-122.338;2023-02-08T09:17:18;6.15;;;5.47;;
70008;SDS011;59542;37.950;-122.338;2023-02-08T09:19:44;8.05;;;5.88;;
70008;SDS011;59542;37.950;-122.338;2023-02-08T09:22:11;8.23;;;5.30;;
70008;SDS011;59542;37.950;-122.338;2023-02-08T09:24:38;7.43;;;5.55;;
70008;SDS011;59542;37.950;-122.338;2023-02-08T09:27:04;7.47;;;6.10;;
70008;SDS011;59542;37.950;-122.338;2023-02-08T09:29:31;8.45;;;5.68;;
70008;SDS011;59542;37.950;-122.338;2023-02-08T09:31:57;8.38;;;6.15;;
70008;SDS011;59542;37.950;-122.338;2023-02-08T09:34:24;8.32;;;6.13;;
70008;SDS011;59542;37.950;-122.338;2023-02-08T09:36:51;6.95;;;5.93;;
70008;SDS011;59542;37.950;-122.338;2023-02-08T09:39:19;8.35;;;6.13;;
70008;SDS011;59542;37.950;-122.338;2023-02-08T09:48:35;6.40;;;5.80;;
70008;SDS011;59542;37.950;-122.338;2023-02-08T09:50:49;6.40;;;5.70;;
70008;SDS011;59542;37.950;-122.338;2023-02-08T09:56:30;6.13;;;5.53;;
70008;SDS011;59542;37.950;-122.338;2023-02-08T09:59:04;6.53;;;5.93;;
70008;SDS011;59542;37.950;-122.338;2023-02-08T10:01:37;7.18;;;5.95;;
70008;SDS011;59542;37.950;-122.338;2023-02-08T10:06:54;7.25;;;6.20;;
70008;SDS011;59542;37.950;-122.338;2023-02-08T10:09:23;8.00;;;5.68;;
70008;SDS011;59542;37.950;-122.338;2023-02-08T10:16:54;7.90;;;6.22;;
70008;SDS011;59542;37.950;-122.338;2023-02-08T10:28:31;7.15;;;6.40;;
70008;SDS011;59542;37.950;-122.338;2023-02-08T10:37:35;10.05;;;7.97;;
70008;SDS011;59542;37.950;-122.338;2023-02-08T10:43:04;8.68;;;7.38;;
70008;SDS011;59542;37.950;-122.338;2023-02-08T10:45:48;8.55;;;7.30;;
70008;SDS011;59542;37.950;-122.338;2023-02-08T10:51:24;10.02;;;8.57;;
70008;SDS011;59542;37.950;-122.338;2023-02-08T10:53:52;12.23;;;8.95;;
70008;SDS011;59542;37.950;-122.338;2023-02-08T10:58:58;10.63;;;9.27;;
70008;SDS011;59542;37.950;-122.338;2023-02-08T11:01:26;10.43;;;9.30;;
70008;SDS011;59542;37.950;-122.338;2023-02-08T11:04:00;11.10;;;9.25;;
70008;SDS011;59542;37.950;-122.338;2023-02-08T11:06:36;11.50;;;9.40;;
70008;SDS011;59542;37.950;-122.338;2023-02-08T11:09:04;12.90;;;10.23;;
70008;SDS011;59542;37.950;-122.338;2023-02-08T11:11:35;15.82;;;11.68;;
70008;SDS011;59542;37.950;-122.338;2023-02-08T11:14:06;13.55;;;11.52;;
70008;SDS011;59542;37.950;-122.338;2023-02-08T11:16:34;15.30;;;11.10;;
70008;SDS011;59542;37.950;-122.338;2023-02-08T11:19:03;12.80;;;11.00;;
70008;SDS011;59542;37.950;-122.338;2023-02-08T11:21:38;11.27;;;10.07;;
70008;SDS011;59542;37.950;-122.338;2023-02-08T11:24:21;17.15;;;11.20;;
70008;SDS011;59542;37.950;-122.338;2023-02-08T11:27:00;14.27;;;11.95;;
70008;SDS011;59542;37.950;-122.338;2023-02-08T11:29:28;14.85;;;12.55;;
70008;SDS011;59542;37.950;-122.338;2023-02-08T11:31:58;12.95;;;11.63;;
70008;SDS011;59542;37.950;-122.338;2023-02-08T11:34:44;12.60;;;9.88;;
70008;SDS011;59542;37.950;-122.338;2023-02-08T11:37:22;10.07;;;8.90;;
70008;SDS011;59542;37.950;-122.338;2023-02-08T11:39:56;8.80;;;7.85;;
70008;SDS011;59542;37.950;-122.338;2023-02-08T11:42:41;7.55;;;6.38;;
70008;SDS011;59542;37.950;-122.338;2023-02-08T11:45:15;8.65;;;6.85;;
70008;SDS011;59542;37.950;-122.338;2023-02-08T11:47:46;12.30;;;6.00;;
70008;SDS011;59542;37.950;-122.338;2023-02-08T11:50:28;8.85;;;6.35;;
70008;SDS011;59542;37.950;-122.338;2023-02-08T11:52:57;8.25;;;6.65;;
70008;SDS011;59542;37.950;-122.338;2023-02-08T11:55:45;7.93;;;6.63;;
70008;SDS011;59542;37.950;-122.338;2023-02-08T11:58:27;7.38;;;6.20;;
70008;SDS011;59542;37.950;-122.338;2023-02-08T12:01:01;8.73;;;6.93;;
70008;SDS011;59542;37.950;-122.338;2023-02-08T12:03:41;7.65;;;6.80;;
70008;SDS011;59542;37.950;-122.338;2023-02-08T12:09:00;10.02;;;7.10;;
70008;SDS011;59542;37.950;-122.338;2023-02-08T12:14:50;9.73;;;8.40;;
70008;SDS011;59542;37.950;-122.338;2023-02-08T12:17:26;9.35;;;8.40;;
70008;SDS011;59542;37.950;-122.338;2023-02-08T12:25:55;11.05;;;9.95;;
70008;SDS011;59542;37.950;-122.338;2023-02-08T12:39:23;11.50;;;9.88;;
70008;SDS011;59542;37.950;-122.338;2023-02-08T12:48:02;8.93;;;7.00;;
70008;SDS011;59542;37.950;-122.338;2023-02-08T12:53:41;9.52;;;6.20;;
70008;SDS011;59542;37.950;-122.338;2023-02-08T12:56:15;8.60;;;6.65;;
70008;SDS011;59542;37.950;-122.338;2023-02-08T12:58:55;13.30;;;6.68;;
70008;SDS011;59542;37.950;-122.338;2023-02-08T13:01:25;7.40;;;6.60;;
70008;SDS011;59542;37.950;-122.338;2023-02-08T13:06:41;6.68;;;5.97;;
70008;SDS011;59542;37.950;-122.338;2023-02-08T13:12:11;7.75;;;5.95;;
70008;SDS011;59542;37.950;-122.338;2023-02-08T13:23:15;8.05;;;6.30;;
70008;SDS011;59542;37.950;-122.338;2023-02-08T13:25:47;7.88;;;6.38;;
70008;SDS011;59542;37.950;-122.338;2023-02-08T13:28:18;6.75;;;6.15;;
70008;SDS011;59542;37.950;-122.338;2023-02-08T13:34:13;6.05;;;5.45;;
70008;SDS011;59542;37.950;-122.338;2023-02-08T13:36:29;6.80;;;5.68;;
70008;SDS011;59542;37.950;-122.338;2023-02-08T13:38:58;7.60;;;6.85;;
70008;SDS011;59542;37.950;-122.338;2023-02-08T13:41:26;11.65;;;7.82;;
70008;SDS011;59542;37.950;-122.338;2023-02-08T13:43:57;8.63;;;6.35;;
70008;SDS011;59542;37.950;-122.338;2023-02-08T13:46:28;9.98;;;6.38;;
70008;SDS011;59542;37.950;-122.338;2023-02-08T13:49:01;7.82;;;5.97;;
70008;SDS011;59542;37.950;-122.338;2023-02-08T13:56:43;10.65;;;6.78;;
70008;SDS011;59542;37.950;-122.338;2023-02-08T14:04:39;10.18;;;7.00;;
70008;SDS011;59542;37.950;-122.338;2023-02-08T14:09:46;7.55;;;5.53;;
70008;SDS011;59542;37.950;-122.338;2023-02-08T14:15:35;7.05;;;5.65;;
70008;SDS011;59542;37.950;-122.338;2023-02-08T14:18:03;6.18;;;5.60;;
70008;SDS011;59542;37.950;-122.338;2023-02-08T14:20:44;5.50;;;4.95;;
70008;SDS011;59542;37.950;-122.338;2023-02-08T14:23:27;7.32;;;5.97;;
70008;SDS011;59542;37.950;-122.338;2023-02-08T14:25:56;7.00;;;5.65;;
70008;SDS011;59542;37.950;-122.338;2023-02-08T14:28:43;6.30;;;5.50;;
70008;SDS011;59542;37.950;-122.338;2023-02-08T14:31:13;6.93;;;5.70;;
70008;SDS011;59542;37.950;-122.338;2023-02-08T14:33:45;5.68;;;5.13;;
70008;SDS011;59542;37.950;-122.338;2023-02-08T14:36:27;9.32;;;5.90;;
70008;SDS011;59542;37.950;-122.338;2023-02-08T14:39:20;6.47;;;5.38;;
70008;SDS011;59542;37.950;-122.338;2023-02-08T14:41:57;5.63;;;5.13;;
70008;SDS011;59542;37.950;-122.338;2023-02-08T14:55:38;6.07;;;5.15;;
70008;SDS011;59542;37.950;-122.338;2023-02-08T14:58:11;6.95;;;5.75;;
70008;SDS011;59542;37.950;-122.338;2023-02-08T15:00:40;8.80;;;5.10;;
70008;SDS011;59542;37.950;-122.338;2023-02-08T15:03:11;6.95;;;5.13;;
70008;SDS011;59542;37.950;-122.338;2023-02-08T15:08:27;6.00;;;5.43;;
70008;SDS011;59542;37.950;-122.338;2023-02-08T15:10:54;8.57;;;5.10;;
70008;SDS011;59542;37.950;-122.338;2023-02-08T15:13:21;5.57;;;4.95;;
70008;SDS011;59542;37.950;-122.338;2023-02-08T15:15:50;6.85;;;5.20;;
70008;SDS011;59542;37.950;-122.338;2023-02-08T15:18:23;5.97;;;5.15;;
70008;SDS011;59542;37.950;-122.338;2023-02-08T15:21:02;6.95;;;4.80;;
70008;SDS011;59542;37.950;-122.338;2023-02-08T15:25:58;6.47;;;4.90;;
70008;SDS011;59542;37.950;-122.338;2023-02-08T15:28:27;6.10;;;4.45;;
70008;SDS011;59542;37.950;-122.338;2023-02-08T15:30:59;5.35;;;4.55;;
70008;SDS011;59542;37.950;-122.338;2023-02-08T15:33:30;6.85;;;4.65;;
70008;SDS011;59542;37.950;-122.338;2023-02-08T15:36:01;4.95;;;4.45;;
70008;SDS011;59542;37.950;-122.338;2023-02-08T15:38:30;5.53;;;4.45;;
70008;SDS011;59542;37.950;-122.338;2023-02-08T15:41:07;5.80;;;4.60;;
70008;SDS011;59542;37.950;-122.338;2023-02-08T15:43:36;5.15;;;4.40;;
70008;SDS011;59542;37.950;-122.338;2023-02-08T15:46:25;5.63;;;4.68;;
70008;SDS011;59542;37.950;-122.338;2023-02-08T15:48:51;5.57;;;4.45;;
70008;SDS011;59542;37.950;-122.338;2023-02-08T15:51:18;5.95;;;5.10;;
70008;SDS011;59542;37.950;-122.338;2023-02-08T15:53:49;8.70;;;6.47;;
70008;SDS011;59542;37.950;-122.338;2023-02-08T15:56:19;8.68;;;5.90;;
70008;SDS011;59542;37.950;-122.338;2023-02-08T15:58:53;6.97;;;4.95;;
70008;SDS011;59542;37.950;-122.338;2023-02-08T16:01:22;7.93;;;6.40;;
70008;SDS011;59542;37.950;-122.338;2023-02-08T16:03:50;6.60;;;5.53;;
70008;SDS011;59542;37.950;-122.338;2023-02-08T16:06:28;7.18;;;5.78;;
70008;SDS011;59542;37.950;-122.338;2023-02-08T16:09:00;6.57;;;4.97;;
70008;SDS011;59542;37.950;-122.338;2023-02-08T16:11:32;6.47;;;4.60;;
70008;SDS011;59542;37.950;-122.338;2023-02-08T16:14:00;7.28;;;4.82;;
70008;SDS011;59542;37.950;-122.338;2023-02-08T16:19:02;5.25;;;4.53;;
70008;SDS011;59542;37.950;-122.338;2023-02-08T16:21:55;5.93;;;4.10;;
70008;SDS011;59542;37.950;-122.338;2023-02-08T16:24:40;5.90;;;4.57;;
70008;SDS011;59542;37.950;-122.338;2023-02-08T16:27:14;7.38;;;4.80;;
70008;SDS011;59542;37.950;-122.338;2023-02-08T16:29:54;6.75;;;4.85;;
70008;SDS011;59542;37.950;-122.338;2023-02-08T16:35:10;6.68;;;5.65;;
70008;SDS011;59542;37.950;-122.338;2023-02-08T16:37:37;8.05;;;5.10;;
70008;SDS011;59542;37.950;-122.338;2023-02-08T16:45:44;8.00;;;7.10;;
70008;SDS011;59542;37.950;-122.338;2023-02-08T16:48:32;9.02;;;8.13;;
70008;SDS011;59542;37.950;-122.338;2023-02-08T16:51:00;11.27;;;7.82;;
70008;SDS011;59542;37.950;-122.338;2023-02-08T16:53:29;10.48;;;8.27;;
70008;SDS011;59542;37.950;-122.338;2023-02-08T16:55:59;12.38;;;8.75;;
70008;SDS011;59542;37.950;-122.338;2023-02-08T16:58:25;9.50;;;8.50;;
70008;SDS011;59542;37.950;-122.338;2023-02-08T17:00:51;9.55;;;7.65;;
70008;SDS011;59542;37.950;-122.338;2023-02-08T17:03:18;10.35;;;8.48;;
70008;SDS011;59542;37.950;-122.338;2023-02-08T17:05:46;9.77;;;8.38;;
70008;SDS011;59542;37.950;-122.338;2023-02-08T17:08:16;9.93;;;8.88;;
70008;SDS011;59542;37.950;-122.338;2023-02-08T17:10:45;9.38;;;8.15;;
70008;SDS011;59542;37.950;-122.338;2023-02-08T17:13:16;12.05;;;8.68;;
70008;SDS011;59542;37.950;-122.338;2023-02-08T17:15:44;12.32;;;8.70;;
70008;SDS011;59542;37.950;-122.338;2023-02-08T17:18:12;12.07;;;9.95;;
70008;SDS011;59542;37.950;-122.338;2023-02-08T17:20:38;11.70;;;9.50;;